sensor_id;sensor_type;location;lat;lon;timestamp;pressure;altitude;pressure_sealevel;temperature;humidity
10638;BME280;47007;49.252;8.904;2023-05-07T00:00:19;99596.41;;;13.96;100.00
10638;BME280;47007;49.252;8.904;2023-05-07T00:01:00;99589.22;;;13.96;100.00
10638;BME280;47007;49.252;8.904;2023-05-07T00:01:43;99648.72;;;14.35;100.00
10638;BME280;47007;49.252;8.904;2023-05-07T00:02:25;99583.50;;;13.93;100.00
10638;BME280;47007;49.252;8.904;2023-05-07T00:03:07;99538.50;;;13.65;100.00
10638;BME280;47007;49.252;8.904;2023-05-07T00:03:49;99654.28;;;14.33;100.00
10638;BME280;47007;49.252;8.904;2023-05-07T00:04:31;99639.94;;;14.28;100.00
10638;BME280;47007;49.252;8.904;2023-05-07T00:05:18;99614.56;;;14.12;100.00
10638;BME280;47007;49.252;8.904;2023-05-07T00:06:00;99617.03;;;14.14;100.00
10638;BME280;47007;49.252;8.904;2023-05-07T00:06:42;99585.72;;;14.02;100.00
10638;BME280;47007;49.252;8.904;2023-05-07T00:07:24;99626.03;;;14.19;100.00
10638;BME280;47007;49.252;8.904;2023-05-07T00:08:05;99653.63;;;14.38;100.00
10638;BME280;47007;49.252;8.904;2023-05-07T00:08:47;99659.78;;;14.38;100.00
10638;BME280;47007;49.252;8.904;2023-05-07T00:09:28;99654.44;;;14.38;100.00
10638;BME280;47007;49.252;8.904;2023-05-07T00:10:10;99656.94;;;14.40;100.00
10638;BME280;47007;49.252;8.904;2023-05-07T00:10:54;99604.34;;;14.09;100.00
10638;BME280;47007;49.252;8.904;2023-05-07T00:11:36;99654.28;;;14.40;100.00
10638;BME280;47007;49.252;8.904;2023-05-07T00:12:17;99636.47;;;14.27;100.00
10638;BME280;47007;49.252;8.904;2023-05-07T00:12:59;99619.91;;;14.12;100.00
10638;BME280;47007;49.252;8.904;2023-05-07T00:13:41;99635.47;;;14.15;100.00
10638;BME280;47007;49.252;8.904;2023-05-07T00:14:23;99645.72;;;14.18;100.00
10638;BME280;47007;49.252;8.904;2023-05-07T00:15:05;99653.06;;;14.23;100.00
10638;BME280;47007;49.252;8.904;2023-05-07T00:15:47;99597.66;;;13.87;100.00
10638;BME280;47007;49.252;8.904;2023-05-07T00:16:29;99650.03;;;14.19;100.00
10638;BME280;47007;49.252;8.904;2023-05-07T00:17:11;99624.03;;;14.01;100.00
10638;BME280;47007;49.252;8.904;2023-05-07T00:17:53;99637.13;;;14.16;100.00
10638;BME280;47007;49.252;8.904;2023-05-07T00:18:35;99650.19;;;14.24;100.00
10638;BME280;47007;49.252;8.904;2023-05-07T00:19:16;99650.00;;;14.26;100.00
10638;BME280;47007;49.252;8.904;2023-05-07T00:19:58;99580.25;;;13.84;100.00
10638;BME280;47007;49.252;8.904;2023-05-07T00:20:39;99649.38;;;14.30;100.00
10638;BME280;47007;49.252;8.904;2023-05-07T00:21:21;99638.34;;;14.20;100.00
10638;BME280;47007;49.252;8.904;2023-05-07T00:22:03;99649.97;;;14.32;100.00
10638;BME280;47007;49.252;8.904;2023-05-07T00:22:44;99657.16;;;14.32;100.00
10638;BME280;47007;49.252;8.904;2023-05-07T00:23:26;99643.63;;;14.27;100.00
10638;BME280;47007;49.252;8.904;2023-05-07T00:24:08;99620.31;;;14.16;100.00
10638;BME280;47007;49.252;8.904;2023-05-07T00:24:49;99618.06;;;14.13;100.00
10638;BME280;47007;49.252;8.904;2023-05-07T00:25:31;99622.97;;;14.16;100.00
10638;BME280;47007;49.252;8.904;2023-05-07T00:26:13;99646.28;;;14.33;100.00
10638;BME280;47007;49.252;8.904;2023-05-07T00:26:56;99634.59;;;14.28;100.00
10638;BME280;47007;49.252;8.904;2023-05-07T00:27:39;99635.38;;;14.35;100.00
10638;BME280;47007;49.252;8.904;2023-05-07T00:28:21;99636.66;;;14.32;100.00
10638;BME280;47007;49.252;8.904;2023-05-07T00:29:02;99634.81;;;14.33;100.00
10638;BME280;47007;49.252;8.904;2023-05-07T00:29:44;99633.38;;;14.30;100.00
10638;BME280;47007;49.252;8.904;2023-05-07T00:30:26;99637.06;;;14.29;100.00
10638;BME280;47007;49.252;8.904;2023-05-07T00:31:08;99618.03;;;14.19;100.00
10638;BME280;47007;49.252;8.904;2023-05-07T00:31:50;99630.50;;;14.25;100.00
10638;BME280;47007;49.252;8.904;2023-05-07T00:32:32;99612.09;;;14.11;100.00
10638;BME280;47007;49.252;8.904;2023-05-07T00:33:14;99625.63;;;14.16;100.00
10638;BME280;47007;49.252;8.904;2023-05-07T00:33:56;99630.72;;;14.24;100.00
10638;BME280;47007;49.252;8.904;2023-05-07T00:34:37;99614.59;;;14.06;100.00
10638;BME280;47007;49.252;8.904;2023-05-07T00:35:20;99635.44;;;14.22;100.00
10638;BME280;47007;49.252;8.904;2023-05-07T00:36:02;99607.22;;;14.08;100.00
10638;BME280;47007;49.252;8.904;2023-05-07T00:36:44;99608.25;;;14.07;100.00
10638;BME280;47007;49.252;8.904;2023-05-07T00:37:26;99628.31;;;14.16;100.00
10638;BME280;47007;49.252;8.904;2023-05-07T00:38:07;99628.25;;;14.22;100.00
10638;BME280;47007;49.252;8.904;2023-05-07T00:38:49;99628.50;;;14.21;100.00
10638;BME280;47007;49.252;8.904;2023-05-07T00:39:31;99591.50;;;13.93;100.00
10638;BME280;47007;49.252;8.904;2023-05-07T00:40:12;99603.13;;;13.98;100.00
10638;BME280;47007;49.252;8.904;2023-05-07T00:40:54;99632.03;;;14.08;100.00
10638;BME280;47007;49.252;8.904;2023-05-07T00:41:36;99593.16;;;13.81;100.00
10638;BME280;47007;49.252;8.904;2023-05-07T00:42:18;99611.16;;;13.85;100.00
10638;BME280;47007;49.252;8.904;2023-05-07T00:42:59;99630.44;;;13.94;100.00
10638;BME280;47007;49.252;8.904;2023-05-07T00:43:41;99614.69;;;13.79;100.00
10638;BME280;47007;49.252;8.904;2023-05-07T00:44:23;99639.84;;;13.90;100.00
10638;BME280;47007;49.252;8.904;2023-05-07T00:45:05;99629.81;;;13.85;100.00
10638;BME280;47007;49.252;8.904;2023-05-07T00:45:49;99633.50;;;13.91;100.00
10638;BME280;47007;49.252;8.904;2023-05-07T00:46:32;99604.44;;;13.76;100.00
10638;BME280;47007;49.252;8.904;2023-05-07T00:47:14;99636.59;;;13.94;100.00
10638;BME280;47007;49.252;8.904;2023-05-07T00:48:00;99624.09;;;13.88;100.00
10638;BME280;47007;49.252;8.904;2023-05-07T00:48:42;99606.06;;;13.77;100.00
10638;BME280;47007;49.252;8.904;2023-05-07T00:49:38;99619.16;;;13.85;100.00
10638;BME280;47007;49.252;8.904;2023-05-07T00:50:20;99631.91;;;13.83;100.00
10638;BME280;47007;49.252;8.904;2023-05-07T00:51:02;99546.78;;;13.24;100.00
10638;BME280;47007;49.252;8.904;2023-05-07T00:51:45;99623.72;;;13.72;100.00
10638;BME280;47007;49.252;8.904;2023-05-07T00:52:27;99622.47;;;13.74;100.00
10638;BME280;47007;49.252;8.904;2023-05-07T00:53:09;99614.72;;;13.66;100.00
10638;BME280;47007;49.252;8.904;2023-05-07T00:53:50;99625.34;;;13.73;100.00
10638;BME280;47007;49.252;8.904;2023-05-07T00:54:33;99622.69;;;13.73;100.00
10638;BME280;47007;49.252;8.904;2023-05-07T00:55:15;99628.00;;;13.79;100.00
10638;BME280;47007;49.252;8.904;2023-05-07T00:55:57;99633.53;;;13.84;100.00
10638;BME280;47007;49.252;8.904;2023-05-07T00:56:39;99607.75;;;13.65;100.00
10638;BME280;47007;49.252;8.904;2023-05-07T00:57:21;99611.81;;;13.74;100.00
10638;BME280;47007;49.252;8.904;2023-05-07T00:58:04;99630.22;;;13.89;100.00
10638;BME280;47007;49.252;8.904;2023-05-07T00:58:47;99608.13;;;13.75;100.00
10638;BME280;47007;49.252;8.904;2023-05-07T00:59:29;99624.50;;;13.85;100.00
10638;BME280;47007;49.252;8.904;2023-05-07T01:00:12;99630.63;;;13.92;100.00
10638;BME280;47007;49.252;8.904;2023-05-07T01:00:55;99619.59;;;13.82;100.00
10638;BME280;47007;49.252;8.904;2023-05-07T01:02:50;99632.88;;;13.95;100.00
10638;BME280;47007;49.252;8.904;2023-05-07T01:03:32;99606.28;;;13.82;100.00
10638;BME280;47007;49.252;8.904;2023-05-07T01:04:14;99633.09;;;13.94;100.00
10638;BME280;47007;49.252;8.904;2023-05-07T01:04:56;99631.25;;;13.94;100.00
10638;BME280;47007;49.252;8.904;2023-05-07T01:05:39;99628.38;;;13.89;100.00
10638;BME280;47007;49.252;8.904;2023-05-07T01:06:24;99629.00;;;13.91;100.00
10638;BME280;47007;49.252;8.904;2023-05-07T01:07:07;99625.72;;;13.89;100.00
10638;BME280;47007;49.252;8.904;2023-05-07T01:07:50;99613.66;;;13.80;100.00
10638;BME280;47007;49.252;8.904;2023-05-07T01:08:35;99626.13;;;13.86;100.00
10638;BME280;47007;49.252;8.904;2023-05-07T01:09:18;99595.03;;;13.67;100.00
10638;BME280;47007;49.252;8.904;2023-05-07T01:10:02;99616.94;;;13.76;100.00
10638;BME280;47007;49.252;8.904;2023-05-07T01:10:44;99621.44;;;13.82;100.00
10638;BME280;47007;49.252;8.904;2023-05-07T01:11:27;99621.25;;;13.77;100.00
10638;BME280;47007;49.252;8.904;2023-05-07T01:12:10;99605.09;;;13.65;100.00
10638;BME280;47007;49.252;8.904;2023-05-07T01:12:52;99617.38;;;13.66;100.00
10638;BME280;47007;49.252;8.904;2023-05-07T01:13:35;99618.00;;;13.68;100.00
10638;BME280;47007;49.252;8.904;2023-05-07T01:14:18;99606.34;;;13.56;100.00
10638;BME280;47007;49.252;8.904;2023-05-07T01:15:02;99624.34;;;13.67;100.00
10638;BME280;47007;49.252;8.904;2023-05-07T01:15:44;99619.63;;;13.62;100.00
10638;BME280;47007;49.252;8.904;2023-05-07T01:16:26;99621.47;;;13.62;100.00
10638;BME280;47007;49.252;8.904;2023-05-07T01:17:11;99617.41;;;13.59;100.00
10638;BME280;47007;49.252;8.904;2023-05-07T01:17:53;99608.19;;;13.55;100.00
10638;BME280;47007;49.252;8.904;2023-05-07T01:18:41;99605.72;;;13.54;100.00
10638;BME280;47007;49.252;8.904;2023-05-07T01:19:23;99619.22;;;13.65;100.00
10638;BME280;47007;49.252;8.904;2023-05-07T01:20:05;99560.28;;;13.29;100.00
10638;BME280;47007;49.252;8.904;2023-05-07T01:20:48;99590.56;;;13.48;100.00
10638;BME280;47007;49.252;8.904;2023-05-07T01:21:33;99623.31;;;13.68;100.00
10638;BME280;47007;49.252;8.904;2023-05-07T01:22:34;99624.97;;;13.69;100.00
10638;BME280;47007;49.252;8.904;2023-05-07T01:23:16;99611.84;;;13.61;100.00
10638;BME280;47007;49.252;8.904;2023-05-07T01:23:59;99624.56;;;13.72;100.00
10638;BME280;47007;49.252;8.904;2023-05-07T01:24:41;99606.09;;;13.64;100.00
10638;BME280;47007;49.252;8.904;2023-05-07T01:25:24;99602.84;;;13.62;100.00
10638;BME280;47007;49.252;8.904;2023-05-07T01:26:08;99618.16;;;13.80;100.00
10638;BME280;47007;49.252;8.904;2023-05-07T01:26:50;99631.03;;;13.89;100.00
10638;BME280;47007;49.252;8.904;2023-05-07T01:27:32;99605.66;;;13.80;100.00
10638;BME280;47007;49.252;8.904;2023-05-07T01:28:18;99601.56;;;13.84;100.00
10638;BME280;47007;49.252;8.904;2023-05-07T01:29:01;99597.66;;;13.87;100.00
10638;BME280;47007;49.252;8.904;2023-05-07T01:29:42;99617.69;;;14.02;100.00
10638;BME280;47007;49.252;8.904;2023-05-07T01:30:25;99561.03;;;13.69;100.00
10638;BME280;47007;49.252;8.904;2023-05-07T01:31:09;99599.06;;;13.96;100.00
10638;BME280;47007;49.252;8.904;2023-05-07T01:31:52;99600.09;;;13.95;100.00
10638;BME280;47007;49.252;8.904;2023-05-07T01:32:48;99619.53;;;14.09;100.00
10638;BME280;47007;49.252;8.904;2023-05-07T01:33:34;99626.47;;;14.10;100.00
10638;BME280;47007;49.252;8.904;2023-05-07T01:34:17;99605.22;;;13.96;100.00
10638;BME280;47007;49.252;8.904;2023-05-07T01:35:01;99611.75;;;14.00;100.00
10638;BME280;47007;49.252;8.904;2023-05-07T01:35:47;99600.09;;;13.95;100.00
10638;BME280;47007;49.252;8.904;2023-05-07T01:36:30;99613.19;;;14.03;100.00
10638;BME280;47007;49.252;8.904;2023-05-07T01:37:14;99611.16;;;13.92;100.00
10638;BME280;47007;49.252;8.904;2023-05-07T01:37:56;99624.28;;;13.93;100.00
10638;BME280;47007;49.252;8.904;2023-05-07T01:38:39;99570.91;;;13.55;100.00
10638;BME280;47007;49.252;8.904;2023-05-07T01:39:25;99603.44;;;13.71;100.00
10638;BME280;47007;49.252;8.904;2023-05-07T01:40:07;99615.50;;;13.73;100.00
10638;BME280;47007;49.252;8.904;2023-05-07T01:40:50;99620.25;;;13.71;100.00
10638;BME280;47007;49.252;8.904;2023-05-07T01:41:32;99602.84;;;13.62;100.00
10638;BME280;47007;49.252;8.904;2023-05-07T01:42:14;99604.88;;;13.66;100.00
10638;BME280;47007;49.252;8.904;2023-05-07T01:42:56;99606.50;;;13.61;100.00
10638;BME280;47007;49.252;8.904;2023-05-07T01:43:40;99610.22;;;13.66;100.00
10638;BME280;47007;49.252;8.904;2023-05-07T01:44:23;99614.31;;;13.62;100.00
10638;BME280;47007;49.252;8.904;2023-05-07T01:45:05;99603.66;;;13.49;100.00
10638;BME280;47007;49.252;8.904;2023-05-07T01:45:48;99603.28;;;13.46;100.00
10638;BME280;47007;49.252;8.904;2023-05-07T01:46:31;99607.19;;;13.43;100.00
10638;BME280;47007;49.252;8.904;2023-05-07T01:47:13;99614.53;;;13.41;100.00
10638;BME280;47007;49.252;8.904;2023-05-07T01:47:56;99587.31;;;13.26;100.00
10638;BME280;47007;49.252;8.904;2023-05-07T01:48:39;99605.31;;;13.37;100.00
10638;BME280;47007;49.252;8.904;2023-05-07T01:49:21;99618.25;;;13.47;100.00
10638;BME280;47007;49.252;8.904;2023-05-07T01:50:06;99587.31;;;13.26;100.00
10638;BME280;47007;49.252;8.904;2023-05-07T01:50:50;99624.59;;;13.46;100.00
10638;BME280;47007;49.252;8.904;2023-05-07T01:51:33;99617.00;;;13.43;100.00
10638;BME280;47007;49.252;8.904;2023-05-07T01:52:15;99617.00;;;13.36;100.00
10638;BME280;47007;49.252;8.904;2023-05-07T01:52:57;99604.94;;;13.34;100.00
10638;BME280;47007;49.252;8.904;2023-05-07T01:53:39;99613.94;;;13.33;100.00
10638;BME280;47007;49.252;8.904;2023-05-07T01:54:26;99617.00;;;13.29;100.00
10638;BME280;47007;49.252;8.904;2023-05-07T01:55:12;99621.13;;;13.32;100.00
10638;BME280;47007;49.252;8.904;2023-05-07T01:55:54;99597.56;;;13.16;100.00
10638;BME280;47007;49.252;8.904;2023-05-07T01:56:37;99615.38;;;13.28;100.00
10638;BME280;47007;49.252;8.904;2023-05-07T01:57:19;99622.97;;;13.32;100.00
10638;BME280;47007;49.252;8.904;2023-05-07T01:58:01;99598.81;;;13.20;100.00
10638;BME280;47007;49.252;8.904;2023-05-07T01:58:42;99617.63;;;13.32;100.00
10638;BME280;47007;49.252;8.904;2023-05-07T01:59:24;99620.91;;;13.34;100.00
10638;BME280;47007;49.252;8.904;2023-05-07T02:00:07;99605.75;;;13.27;100.00
10638;BME280;47007;49.252;8.904;2023-05-07T02:00:56;99626.00;;;13.42;100.00
10638;BME280;47007;49.252;8.904;2023-05-07T02:01:38;99601.66;;;13.32;100.00
10638;BME280;47007;49.252;8.904;2023-05-07T02:02:20;99618.44;;;13.45;100.00
10638;BME280;47007;49.252;8.904;2023-05-07T02:03:01;99624.56;;;13.52;100.00
10638;BME280;47007;49.252;8.904;2023-05-07T02:04:04;99630.31;;;13.56;100.00
10638;BME280;47007;49.252;8.904;2023-05-07T02:04:45;99620.47;;;13.56;100.00
10638;BME280;47007;49.252;8.904;2023-05-07T02:05:29;99625.16;;;13.61;100.00
10638;BME280;47007;49.252;8.904;2023-05-07T02:06:18;99629.25;;;13.63;100.00
10638;BME280;47007;49.252;8.904;2023-05-07T02:07:00;99627.41;;;13.64;100.00
10638;BME280;47007;49.252;8.904;2023-05-07T02:07:43;99624.53;;;13.65;100.00
10638;BME280;47007;49.252;8.904;2023-05-07T02:08:25;99630.91;;;13.64;100.00
10638;BME280;47007;49.252;8.904;2023-05-07T02:09:07;99625.78;;;13.63;100.00
10638;BME280;47007;49.252;8.904;2023-05-07T02:09:51;99625.38;;;13.59;100.00
10638;BME280;47007;49.252;8.904;2023-05-07T02:10:33;99635.00;;;13.60;100.00
10638;BME280;47007;49.252;8.904;2023-05-07T02:11:15;99609.81;;;13.37;100.00
10638;BME280;47007;49.252;8.904;2023-05-07T02:11:57;99634.41;;;13.52;100.00
10638;BME280;47007;49.252;8.904;2023-05-07T02:12:39;99630.31;;;13.43;100.00
10638;BME280;47007;49.252;8.904;2023-05-07T02:13:20;99624.56;;;13.39;100.00
10638;BME280;47007;49.252;8.904;2023-05-07T02:14:03;99635.63;;;13.43;100.00
10638;BME280;47007;49.252;8.904;2023-05-07T02:14:45;99632.75;;;13.38;100.00
10638;BME280;47007;49.252;8.904;2023-05-07T02:15:30;99630.31;;;13.29;100.00
10638;BME280;47007;49.252;8.904;2023-05-07T02:16:14;99637.09;;;13.32;100.00
10638;BME280;47007;49.252;8.904;2023-05-07T02:16:56;99628.06;;;13.26;100.00
10638;BME280;47007;49.252;8.904;2023-05-07T02:17:58;99633.41;;;13.33;100.00
10638;BME280;47007;49.252;8.904;2023-05-07T02:18:41;99623.16;;;13.30;100.00
10638;BME280;47007;49.252;8.904;2023-05-07T02:19:23;99634.41;;;13.32;100.00
10638;BME280;47007;49.252;8.904;2023-05-07T02:20:05;99626.81;;;13.36;100.00
10638;BME280;47007;49.252;8.904;2023-05-07T02:20:48;99634.81;;;13.42;100.00
10638;BME280;47007;49.252;8.904;2023-05-07T02:21:30;99615.16;;;13.37;100.00
10638;BME280;47007;49.252;8.904;2023-05-07T02:22:11;99631.31;;;13.48;100.00
10638;BME280;47007;49.252;8.904;2023-05-07T02:22:53;99631.72;;;13.52;100.00
10638;BME280;47007;49.252;8.904;2023-05-07T02:23:35;99616.78;;;13.51;100.00
10638;BME280;47007;49.252;8.904;2023-05-07T02:24:17;99618.84;;;13.55;100.00
10638;BME280;47007;49.252;8.904;2023-05-07T02:24:58;99621.28;;;13.57;100.00
10638;BME280;47007;49.252;8.904;2023-05-07T02:25:40;99614.94;;;13.58;100.00
10638;BME280;47007;49.252;8.904;2023-05-07T02:26:21;99615.53;;;13.60;100.00
10638;BME280;47007;49.252;8.904;2023-05-07T02:27:03;99604.09;;;13.59;100.00
10638;BME280;47007;49.252;8.904;2023-05-07T02:27:45;99622.09;;;13.64;100.00
10638;BME280;47007;49.252;8.904;2023-05-07T02:28:27;99624.13;;;13.62;100.00
10638;BME280;47007;49.252;8.904;2023-05-07T02:29:15;99621.28;;;13.57;100.00
10638;BME280;47007;49.252;8.904;2023-05-07T02:29:56;99628.25;;;13.58;100.00
10638;BME280;47007;49.252;8.904;2023-05-07T02:30:38;99608.41;;;13.47;100.00
10638;BME280;47007;49.252;8.904;2023-05-07T02:31:20;99606.53;;;13.48;100.00
10638;BME280;47007;49.252;8.904;2023-05-07T02:32:02;99623.75;;;13.58;100.00
10638;BME280;47007;49.252;8.904;2023-05-07T02:32:44;99616.78;;;13.57;100.00
10638;BME280;47007;49.252;8.904;2023-05-07T02:33:26;99605.50;;;13.49;100.00
10638;BME280;47007;49.252;8.904;2023-05-07T02:34:08;99608.59;;;13.52;100.00
10638;BME280;47007;49.252;8.904;2023-05-07T02:34:50;99614.75;;;13.59;100.00
10638;BME280;47007;49.252;8.904;2023-05-07T02:35:32;99628.25;;;13.58;100.00
10638;BME280;47007;49.252;8.904;2023-05-07T02:36:14;99626.63;;;13.57;100.00
10638;BME280;47007;49.252;8.904;2023-05-07T02:37:05;99618.00;;;13.55;100.00
10638;BME280;47007;49.252;8.904;2023-05-07T02:37:49;99626.63;;;13.57;100.00
10638;BME280;47007;49.252;8.904;2023-05-07T02:38:34;99615.13;;;13.50;100.00
10638;BME280;47007;49.252;8.904;2023-05-07T02:39:16;99621.50;;;13.55;100.00
10638;BME280;47007;49.252;8.904;2023-05-07T02:39:57;99620.69;;;13.55;100.00
10638;BME280;47007;49.252;8.904;2023-05-07T02:40:39;99620.69;;;13.55;100.00
10638;BME280;47007;49.252;8.904;2023-05-07T02:41:21;99622.53;;;13.54;100.00
10638;BME280;47007;49.252;8.904;2023-05-07T02:42:03;99610.25;;;13.47;100.00
10638;BME280;47007;49.252;8.904;2023-05-07T02:42:45;99608.00;;;13.44;100.00
10638;BME280;47007;49.252;8.904;2023-05-07T02:43:26;99592.25;;;13.29;100.00
10638;BME280;47007;49.252;8.904;2023-05-07T02:44:08;99608.19;;;13.42;100.00
10638;BME280;47007;49.252;8.904;2023-05-07T02:44:51;99601.63;;;13.38;100.00
10638;BME280;47007;49.252;8.904;2023-05-07T02:45:33;99616.97;;;13.49;100.00
10638;BME280;47007;49.252;8.904;2023-05-07T02:46:16;99618.00;;;13.48;100.00
10638;BME280;47007;49.252;8.904;2023-05-07T02:47:02;99604.13;;;13.33;100.00
10638;BME280;47007;49.252;8.904;2023-05-07T02:47:43;99619.66;;;13.43;100.00
10638;BME280;47007;49.252;8.904;2023-05-07T02:48:25;99613.50;;;13.36;100.00
10638;BME280;47007;49.252;8.904;2023-05-07T02:49:10;99618.44;;;13.25;100.00
10638;BME280;47007;49.252;8.904;2023-05-07T02:49:53;99616.22;;;13.22;100.00
10638;BME280;47007;49.252;8.904;2023-05-07T02:50:34;99613.50;;;13.09;100.00
10638;BME280;47007;49.252;8.904;2023-05-07T02:51:19;99601.84;;;12.97;100.00
10638;BME280;47007;49.252;8.904;2023-05-07T02:52:05;99608.59;;;12.93;100.00
10638;BME280;47007;49.252;8.904;2023-05-07T02:52:46;99620.66;;;12.95;100.00
10638;BME280;47007;49.252;8.904;2023-05-07T02:53:29;99609.38;;;12.80;100.00
10638;BME280;47007;49.252;8.904;2023-05-07T02:54:11;99618.81;;;12.83;100.00
10638;BME280;47007;49.252;8.904;2023-05-07T02:54:52;99603.22;;;12.67;100.00
10638;BME280;47007;49.252;8.904;2023-05-07T02:55:34;99627.97;;;12.74;100.00
10638;BME280;47007;49.252;8.904;2023-05-07T02:56:16;99619.59;;;12.70;100.00
10638;BME280;47007;49.252;8.904;2023-05-07T02:56:57;99623.69;;;12.66;100.00
10638;BME280;47007;49.252;8.904;2023-05-07T02:57:40;99625.72;;;12.64;100.00
10638;BME280;47007;49.252;8.904;2023-05-07T02:58:22;99632.25;;;12.62;100.00
10638;BME280;47007;49.252;8.904;2023-05-07T02:59:04;99619.75;;;12.55;100.00
10638;BME280;47007;49.252;8.904;2023-05-07T02:59:51;99621.22;;;12.58;100.00
10638;BME280;47007;49.252;8.904;2023-05-07T03:00:35;99625.72;;;12.57;100.00
10638;BME280;47007;49.252;8.904;2023-05-07T03:01:26;99586.00;;;12.36;100.00
10638;BME280;47007;49.252;8.904;2023-05-07T03:02:13;99631.03;;;12.64;100.00
10638;BME280;47007;49.252;8.904;2023-05-07T03:02:55;99623.44;;;12.61;100.00
10638;BME280;47007;49.252;8.904;2023-05-07T03:03:37;99624.88;;;12.64;100.00
10638;BME280;47007;49.252;8.904;2023-05-07T03:04:19;99615.47;;;12.61;100.00
10638;BME280;47007;49.252;8.904;2023-05-07T03:05:00;99614.69;;;12.61;100.00
10638;BME280;47007;49.252;8.904;2023-05-07T03:05:43;99630.25;;;12.77;100.00
10638;BME280;47007;49.252;8.904;2023-05-07T03:06:24;99614.25;;;12.64;100.00
10638;BME280;47007;49.252;8.904;2023-05-07T03:07:06;99631.69;;;12.79;100.00
10638;BME280;47007;49.252;8.904;2023-05-07T03:07:48;99625.13;;;12.75;100.00
10638;BME280;47007;49.252;8.904;2023-05-07T03:08:29;99633.31;;;12.80;100.00
10638;BME280;47007;49.252;8.904;2023-05-07T03:09:11;99634.16;;;12.81;100.00
10638;BME280;47007;49.252;8.904;2023-05-07T03:09:53;99625.75;;;12.77;100.00
10638;BME280;47007;49.252;8.904;2023-05-07T03:10:36;99628.81;;;12.81;100.00
10638;BME280;47007;49.252;8.904;2023-05-07T03:11:17;99601.78;;;12.64;100.00
10638;BME280;47007;49.252;8.904;2023-05-07T03:11:59;99619.59;;;12.77;100.00
10638;BME280;47007;49.252;8.904;2023-05-07T03:12:41;99625.34;;;12.80;100.00
10638;BME280;47007;49.252;8.904;2023-05-07T03:13:25;99610.19;;;12.68;100.00
10638;BME280;47007;49.252;8.904;2023-05-07T03:14:07;99623.50;;;12.81;100.00
10638;BME280;47007;49.252;8.904;2023-05-07T03:14:49;99627.81;;;12.82;100.00
10638;BME280;47007;49.252;8.904;2023-05-07T03:15:31;99630.25;;;12.83;100.00
10638;BME280;47007;49.252;8.904;2023-05-07T03:16:12;99622.47;;;12.82;100.00
10638;BME280;47007;49.252;8.904;2023-05-07T03:16:54;99623.31;;;12.82;100.00
10638;BME280;47007;49.252;8.904;2023-05-07T03:17:36;99586.84;;;12.56;100.00
10638;BME280;47007;49.252;8.904;2023-05-07T03:18:18;99611.81;;;12.75;100.00
10638;BME280;47007;49.252;8.904;2023-05-07T03:19:00;99619.63;;;12.83;100.00
10638;BME280;47007;49.252;8.904;2023-05-07T03:19:43;99606.94;;;12.79;100.00
10638;BME280;47007;49.252;8.904;2023-05-07T03:20:25;99602.44;;;12.73;100.00
10638;BME280;47007;49.252;8.904;2023-05-07T03:21:07;99599.97;;;12.71;100.00
10638;BME280;47007;49.252;8.904;2023-05-07T03:21:49;99618.19;;;12.81;100.00
10638;BME280;47007;49.252;8.904;2023-05-07T03:22:31;99609.34;;;12.74;100.00
10638;BME280;47007;49.252;8.904;2023-05-07T03:23:12;99614.91;;;12.79;100.00
10638;BME280;47007;49.252;8.904;2023-05-07T03:23:54;99606.94;;;12.72;100.00
10638;BME280;47007;49.252;8.904;2023-05-07T03:24:36;99594.44;;;12.66;100.00
10638;BME280;47007;49.252;8.904;2023-05-07T03:25:17;99587.88;;;12.62;100.00
10638;BME280;47007;49.252;8.904;2023-05-07T03:25:59;99606.31;;;12.77;100.00
10638;BME280;47007;49.252;8.904;2023-05-07T03:26:41;99608.97;;;12.77;100.00
10638;BME280;47007;49.252;8.904;2023-05-07T03:27:22;99593.84;;;12.71;100.00
10638;BME280;47007;49.252;8.904;2023-05-07T03:28:06;99599.78;;;12.73;100.00
10638;BME280;47007;49.252;8.904;2023-05-07T03:29:00;99609.59;;;12.79;100.00
10638;BME280;47007;49.252;8.904;2023-05-07T03:29:42;99606.09;;;12.78;100.00
10638;BME280;47007;49.252;8.904;2023-05-07T03:30:24;99602.00;;;12.76;100.00
10638;BME280;47007;49.252;8.904;2023-05-07T03:31:05;99587.66;;;12.64;100.00
10638;BME280;47007;49.252;8.904;2023-05-07T03:31:47;99603.84;;;12.69;100.00
10638;BME280;47007;49.252;8.904;2023-05-07T03:32:29;99591.53;;;12.54;100.00
10638;BME280;47007;49.252;8.904;2023-05-07T03:33:11;99612.22;;;12.66;100.00
10638;BME280;47007;49.252;8.904;2023-05-07T03:33:55;99609.75;;;12.64;100.00
10638;BME280;47007;49.252;8.904;2023-05-07T03:34:37;99616.53;;;12.67;100.00
10638;BME280;47007;49.252;8.904;2023-05-07T03:35:20;99615.50;;;12.68;100.00
10638;BME280;47007;49.252;8.904;2023-05-07T03:36:02;99595.03;;;12.62;100.00
10638;BME280;47007;49.252;8.904;2023-05-07T03:36:43;99601.97;;;12.63;100.00
10638;BME280;47007;49.252;8.904;2023-05-07T03:37:26;99589.31;;;12.58;100.00
10638;BME280;47007;49.252;8.904;2023-05-07T03:38:08;99550.63;;;12.36;100.00
10638;BME280;47007;49.252;8.904;2023-05-07T03:38:51;99600.75;;;12.65;100.00
10638;BME280;47007;49.252;8.904;2023-05-07T03:39:35;99618.38;;;12.73;100.00
10638;BME280;47007;49.252;8.904;2023-05-07T03:40:17;99586.84;;;12.56;100.00
10638;BME280;47007;49.252;8.904;2023-05-07T03:41:03;99613.47;;;12.70;100.00
10638;BME280;47007;49.252;8.904;2023-05-07T03:41:44;99615.50;;;12.68;100.00
10638;BME280;47007;49.252;8.904;2023-05-07T03:42:26;99607.72;;;12.66;100.00
10638;BME280;47007;49.252;8.904;2023-05-07T03:43:08;99608.13;;;12.63;100.00
10638;BME280;47007;49.252;8.904;2023-05-07T03:43:53;99584.59;;;12.47;100.00
10638;BME280;47007;49.252;8.904;2023-05-07T03:44:34;99612.81;;;12.61;100.00
10638;BME280;47007;49.252;8.904;2023-05-07T03:45:17;99613.03;;;12.59;100.00